Atka, Alaska
Current Conditions -  °F | °C
As of 7:36 AM on Friday 26 Dec 2014 (Local Time) from PAAK Reporting Station
Broken Clouds Broken Clouds  
Wind Chill: 34°   Ceiling: 4700
Heat Index: 39°   Visibility: 7mi
Dew Point: 32°   Wind: 7mph
Humidity: 75%   Direction: 270°W
Pressure: 29.36"   Gusts: NA
Location:  52.19°N, 174.2°W
Report Text: PAAK 261736Z 27006KT 7SM BKN047 04/00 A2936 RMK AO1
Loading
Personal Weather Stations






























Interactive Weather Map New forecast layout! Learn more

10-Day Weather Forecast

Advertisements
Track Severe Weather on mobile